createdAt,value
2019-04-21T00:02:32.245Z,36.76
2019-04-21T00:05:17.277Z,36.77
2019-04-21T00:07:49.334Z,36.57
2019-04-21T00:10:18.882Z,37.06
2019-04-21T00:12:47.471Z,37.58
2019-04-21T00:15:15.775Z,38.47
2019-04-21T00:17:33.488Z,38.73
2019-04-21T00:20:17.628Z,38.04
2019-04-21T00:22:51.608Z,38.04
2019-04-21T00:25:25.230Z,38.91
2019-04-21T00:28:00.378Z,39.82
2019-04-21T00:30:34.133Z,38.88
2019-04-21T00:32:54.080Z,41.38
2019-04-21T00:35:22.504Z,39.92
2019-04-21T00:38:08.290Z,40.34
2019-04-21T00:40:46.349Z,40.85
2019-04-21T00:43:12.249Z,42.95
2019-04-21T00:45:33.753Z,42.46
2019-04-21T00:48:16.943Z,42.37
2019-04-21T00:51:04.004Z,42.42
2019-04-21T00:53:33.843Z,43.39
2019-04-21T00:56:03.434Z,43.40
2019-04-21T00:58:30.003Z,43.39
2019-04-21T01:00:58.908Z,43.69
2019-04-21T01:03:32.425Z,44.18
2019-04-21T01:06:16.343Z,44.15
2019-04-21T01:08:31.335Z,44.46
2019-04-21T01:10:55.356Z,44.73
2019-04-21T01:13:56.729Z,45.09
2019-04-21T01:16:06.886Z,45.48
2019-04-21T01:18:38.091Z,45.44
2019-04-21T01:20:46.635Z,46.31
2019-04-21T01:23:16.759Z,45.85
2019-04-21T01:26:01.885Z,46.86
2019-04-21T01:28:36.206Z,46.68
2019-04-21T01:31:11.105Z,46.83
2019-04-21T01:33:45.027Z,47.27
2019-04-21T01:36:12.884Z,47.57
2019-04-21T01:38:52.410Z,47.67
2019-04-21T01:41:21.778Z,47.79
2019-04-21T01:43:45.156Z,48.12
2019-04-21T01:46:15.395Z,47.64
2019-04-21T01:48:47.992Z,48.26
2019-04-21T01:51:13.865Z,48.77
2019-04-21T01:53:56.737Z,48.53
2019-04-21T01:56:40.170Z,49.29
2019-04-21T01:58:56.401Z,50.52
2019-04-21T02:01:39.202Z,49.67
2019-04-21T02:04:16.702Z,49.67
2019-04-21T02:06:44.478Z,49.41
2019-04-21T02:09:10.124Z,50.61
2019-04-21T02:11:50.659Z,51.38
2019-04-21T02:14:22.881Z,50.25
2019-04-21T02:16:48.267Z,50.24
2019-04-21T02:19:19.925Z,51.14
2019-04-21T02:21:43.624Z,51.12
2019-04-21T02:24:30.744Z,50.81
2019-04-21T02:26:54.276Z,51.23
2019-04-21T02:29:29.061Z,51.89
2019-04-21T02:34:40.950Z,51.33
2019-04-21T02:37:27.184Z,51.78
2019-04-21T02:39:53.690Z,51.74
2019-04-21T02:42:09.756Z,51.46
2019-04-21T02:47:16.734Z,52.23
2019-04-21T02:52:20.062Z,51.59
2019-04-21T02:55:02.693Z,51.82
2019-04-21T02:57:18.575Z,52.30
2019-04-21T02:59:59.970Z,52.57
2019-04-21T03:05:31.021Z,52.30
2019-04-21T03:13:07.610Z,52.87
2019-04-21T03:15:29.238Z,52.89
2019-04-21T03:18:15.085Z,52.66
2019-04-21T03:20:39.934Z,53.42
2019-04-21T03:23:07.662Z,53.36
2019-04-21T03:28:10.278Z,54.06
2019-04-21T03:38:18.919Z,54.11
2019-04-21T03:40:39.947Z,54.21
2019-04-21T03:43:20.453Z,54.32
2019-04-21T03:45:55.340Z,54.40
2019-04-21T03:48:36.609Z,54.46
2019-04-21T03:50:47.273Z,54.18
2019-04-21T03:53:25.028Z,54.54
2019-04-21T03:58:35.953Z,54.02
2019-04-21T04:01:08.282Z,54.64
2019-04-21T04:04:08.467Z,54.67
2019-04-21T04:06:45.088Z,54.43
2019-04-21T04:09:12.808Z,54.93
2019-04-21T04:11:41.547Z,54.48
2019-04-21T04:16:35.415Z,54.84
2019-04-21T04:21:37.545Z,55.05
2019-04-21T04:26:42.930Z,55.35
2019-04-21T04:31:42.811Z,55.56
2019-04-21T04:34:29.272Z,55.31
2019-04-21T04:37:03.474Z,55.42
2019-04-21T04:39:42.742Z,55.30
2019-04-21T04:49:48.185Z,55.71
2019-04-21T04:57:42.011Z,55.66
2019-04-21T05:02:27.816Z,56.18
2019-04-21T05:07:29.846Z,56.22
2019-04-21T05:09:58.190Z,56.05
2019-04-21T05:12:17.550Z,56.33
2019-04-21T05:14:57.085Z,56.59
2019-04-21T05:22:22.215Z,56.66
2019-04-21T05:24:44.496Z,56.42
2019-04-21T05:27:33.621Z,56.96
2019-04-21T05:30:21.991Z,56.38
2019-04-21T05:32:57.583Z,56.89
2019-04-21T05:35:21.536Z,56.85
2019-04-21T05:37:58.625Z,56.24
2019-04-21T05:40:22.740Z,56.45
2019-04-21T05:42:59.822Z,57.44
2019-04-21T05:45:34.849Z,57.51
2019-04-21T05:48:17.268Z,57.12
2019-04-21T05:50:36.477Z,57.68
2019-04-21T05:53:09.766Z,58.42
2019-04-21T05:55:46.063Z,57.74
2019-04-21T05:58:20.999Z,57.62
2019-04-21T06:01:22.622Z,57.07
2019-04-21T06:03:32.382Z,57.46
2019-04-21T06:11:05.401Z,56.82
2019-04-21T06:13:34.817Z,56.82
2019-04-21T06:16:03.225Z,56.61
2019-04-21T06:18:44.869Z,56.40
2019-04-21T06:21:06.965Z,56.84
2019-04-21T06:23:36.293Z,57.25
2019-04-21T06:28:40.172Z,56.58
2019-04-21T06:31:27.167Z,56.72
2019-04-21T06:33:45.922Z,56.88
2019-04-21T06:36:31.506Z,55.84
2019-04-21T06:39:06.389Z,55.54
2019-04-21T06:41:31.538Z,55.85
2019-04-21T06:46:43.822Z,54.80
2019-04-21T06:49:24.159Z,55.39
2019-04-21T06:51:43.591Z,55.08
2019-04-21T06:54:14.370Z,55.51
2019-04-21T06:57:03.247Z,55.59
2019-04-21T06:59:13.437Z,53.01
2019-04-21T07:02:08.834Z,54.79
2019-04-21T07:04:29.546Z,54.16
2019-04-21T07:06:54.639Z,53.96
2019-04-21T07:09:49.959Z,52.57
2019-04-21T07:11:55.105Z,51.91
2019-04-21T07:14:42.086Z,51.98
2019-04-21T07:17:06.342Z,52.81
2019-04-21T07:19:34.699Z,51.88
2019-04-21T07:22:03.158Z,51.13
2019-04-21T07:24:41.743Z,50.92
2019-04-21T07:27:11.800Z,49.53
2019-04-21T07:29:41.623Z,47.44
2019-04-21T07:32:10.413Z,45.29
2019-04-21T07:34:38.402Z,45.80
2019-04-21T07:37:12.541Z,45.07
2019-04-21T07:39:40.252Z,45.28
2019-04-21T07:42:09.165Z,43.89
2019-04-21T07:44:42.344Z,43.04
2019-04-21T07:47:15.752Z,42.63
2019-04-21T07:49:57.469Z,41.40
2019-04-21T07:52:34.664Z,43.32
2019-04-21T07:57:34.493Z,41.80
2019-04-21T08:02:38.518Z,39.41
2019-04-21T08:05:13.095Z,39.12
2019-04-21T08:07:59.521Z,38.34
2019-04-21T08:10:11.643Z,36.86
2019-04-21T08:12:39.073Z,37.50
2019-04-21T08:17:42.595Z,36.99
2019-04-21T08:20:14.029Z,35.88
2019-04-21T08:30:19.016Z,33.68
2019-04-21T08:33:00.877Z,33.16
2019-04-21T08:35:49.502Z,34.66
2019-04-21T08:37:57.024Z,33.55
2019-04-21T08:40:34.724Z,33.34
2019-04-21T08:42:55.229Z,32.50
2019-04-21T08:48:02.737Z,33.57
2019-04-21T08:50:30.608Z,33.26
2019-04-21T08:53:22.562Z,32.12
2019-04-21T08:55:42.521Z,31.66
2019-04-21T08:58:26.786Z,30.74
2019-04-21T09:01:01.801Z,31.86
2019-04-21T09:03:49.551Z,30.06
2019-04-21T09:06:27.419Z,30.21
2019-04-21T09:08:51.999Z,30.02
2019-04-21T09:11:16.286Z,31.17
2019-04-21T09:13:50.673Z,29.80
2019-04-21T09:16:21.919Z,28.73
2019-04-21T09:18:45.637Z,27.22
2019-04-21T09:21:28.183Z,30.05
2019-04-21T09:23:56.363Z,29.26
2019-04-21T09:26:29.445Z,28.88
2019-04-21T09:28:53.381Z,27.64
2019-04-21T09:31:19.180Z,27.07
2019-04-21T09:33:48.802Z,27.73
2019-04-21T09:36:19.576Z,27.07
2019-04-21T09:38:56.095Z,28.46
2019-04-21T09:41:22.151Z,25.10
2019-04-21T09:43:53.629Z,26.74
2019-04-21T09:46:20.884Z,25.50
2019-04-21T09:48:58.638Z,28.28
2019-04-21T09:51:21.708Z,27.73
2019-04-21T09:53:58.448Z,27.07
2019-04-21T09:56:32.072Z,26.15
2019-04-21T09:59:05.564Z,26.41
2019-04-21T10:01:36.410Z,24.76
2019-04-21T10:04:00.199Z,26.04
2019-04-21T10:06:28.401Z,28.20
2019-04-21T10:09:03.996Z,25.57
2019-04-21T10:11:29.271Z,23.91
2019-04-21T10:13:58.894Z,24.63
2019-04-21T10:16:28.099Z,24.68
2019-04-21T10:18:58.846Z,22.26
2019-04-21T10:21:29.404Z,23.11
2019-04-21T10:23:59.841Z,24.61
2019-04-21T10:26:30.551Z,24.17
2019-04-21T10:29:08.570Z,23.51
2019-04-21T10:31:32.436Z,21.18
2019-04-21T10:34:03.138Z,22.14
2019-04-21T10:36:33.197Z,26.47
2019-04-21T10:39:04.213Z,23.11
2019-04-21T10:41:35.160Z,21.27
2019-04-21T10:44:05.075Z,21.98
2019-04-21T10:46:35.013Z,21.90
2019-04-21T10:49:04.778Z,23.71
2019-04-21T10:51:35.144Z,21.24
2019-04-21T10:54:06.168Z,21.07
2019-04-21T10:56:41.122Z,21.18
2019-04-21T10:59:08.032Z,21.02
2019-04-21T11:01:38.917Z,19.96
2019-04-21T11:04:19.537Z,20.91
2019-04-21T11:06:42.264Z,21.55
2019-04-21T11:09:12.075Z,19.38
2019-04-21T11:11:44.574Z,20.56
2019-04-21T11:14:13.461Z,20.73
2019-04-21T11:16:45.840Z,22.59
2019-04-21T11:19:15.846Z,21.61
2019-04-21T11:21:45.527Z,19.58
2019-04-21T11:24:16.454Z,19.64
2019-04-21T11:26:47.642Z,19.61
2019-04-21T11:29:17.342Z,18.86
2019-04-21T11:31:47.334Z,22.02
2019-04-21T11:34:16.942Z,18.00
2019-04-21T11:36:46.490Z,22.31
2019-04-21T11:39:27.337Z,20.37
2019-04-21T11:41:49.813Z,20.38
2019-04-21T11:44:22.839Z,19.09
2019-04-21T11:46:52.056Z,20.21
2019-04-21T11:49:22.373Z,19.51
2019-04-21T11:51:53.125Z,17.87
2019-04-21T11:54:22.715Z,19.25
2019-04-21T11:56:52.843Z,18.85
2019-04-21T11:59:23.723Z,19.62
2019-04-21T12:01:54.044Z,18.42
2019-04-21T12:04:23.630Z,18.74
2019-04-21T12:06:55.621Z,18.66
2019-04-21T12:09:25.093Z,17.64
2019-04-21T12:11:54.721Z,18.86
2019-04-21T12:14:24.197Z,19.45
2019-04-21T12:16:55.101Z,18.63
2019-04-21T12:19:25.012Z,19.40
2019-04-21T12:22:05.346Z,17.10
2019-04-21T12:24:27.678Z,17.59
2019-04-21T12:26:57.959Z,18.07
2019-04-21T12:29:29.029Z,17.78
2019-04-21T12:32:01.399Z,18.23
2019-04-21T12:34:32.159Z,16.73
2019-04-21T12:37:01.736Z,17.45
2019-04-21T12:39:32.632Z,17.63
2019-04-21T12:42:02.674Z,18.11
2019-04-21T12:44:33.567Z,17.16
2019-04-21T12:47:03.687Z,16.06
2019-04-21T12:49:33.858Z,17.36
2019-04-21T12:52:03.865Z,17.22
2019-04-21T12:54:33.788Z,18.41
2019-04-21T12:57:03.494Z,16.70
2019-04-21T12:59:34.555Z,18.34
2019-04-21T13:02:04.317Z,17.21
2019-04-21T13:04:33.836Z,18.93
2019-04-21T13:07:03.740Z,18.09
2019-04-21T13:09:34.258Z,17.11
2019-04-21T13:12:04.943Z,16.40
2019-04-21T13:14:35.755Z,15.98
2019-04-21T13:17:05.703Z,15.84
2019-04-21T13:19:35.708Z,15.97
2019-04-21T13:22:06.032Z,17.40
2019-04-21T13:24:35.865Z,16.69
2019-04-21T13:27:07.094Z,16.77
2019-04-21T13:29:36.951Z,17.17
2019-04-21T13:32:07.376Z,17.78
2019-04-21T13:34:37.975Z,17.21
2019-04-21T13:37:07.761Z,18.05
2019-04-21T13:40:09.959Z,16.31
2019-04-21T13:42:36.353Z,16.24
2019-04-21T13:45:00.971Z,16.88
2019-04-21T13:47:30.506Z,16.97
2019-04-21T13:50:02.888Z,16.21
2019-04-21T13:52:33.047Z,16.48
2019-04-21T13:55:03.417Z,16.17
2019-04-21T13:57:34.519Z,17.53
2019-04-21T14:00:07.198Z,16.72
2019-04-21T14:02:36.708Z,15.71
2019-04-21T14:05:11.804Z,15.93
2019-04-21T14:07:41.917Z,15.90
2019-04-21T14:10:14.036Z,15.92
2019-04-21T14:12:44.498Z,17.15
2019-04-21T14:15:15.128Z,16.74
2019-04-21T14:17:44.699Z,16.33
2019-04-21T14:20:15.313Z,15.93
2019-04-21T14:22:46.349Z,16.69
2019-04-21T14:25:17.478Z,17.11
2019-04-21T14:28:06.566Z,16.56
2019-04-21T14:30:36.555Z,18.78
2019-04-21T14:33:07.790Z,17.31
2019-04-21T14:35:38.824Z,15.77
2019-04-21T14:38:09.048Z,16.67
2019-04-21T14:40:38.903Z,18.36
2019-04-21T14:43:08.359Z,17.62
2019-04-21T14:45:45.288Z,17.73
2019-04-21T14:48:21.222Z,16.01
2019-04-21T14:50:54.985Z,18.96
2019-04-21T14:53:29.409Z,15.74
2019-04-21T14:55:59.572Z,17.01
2019-04-21T14:58:29.078Z,15.49
2019-04-21T15:01:04.166Z,16.40
2019-04-21T15:03:34.332Z,20.33
2019-04-21T15:06:05.419Z,18.41
2019-04-21T15:08:35.420Z,17.29
2019-04-21T15:11:05.355Z,19.83
2019-04-21T15:13:35.519Z,18.92
2019-04-21T15:16:06.865Z,20.62
2019-04-21T15:18:36.886Z,18.30
2019-04-21T15:21:07.790Z,18.54
2019-04-21T15:23:38.194Z,16.46
2019-04-21T15:26:08.278Z,17.61
2019-04-21T15:28:40.546Z,17.80
2019-04-21T15:31:12.719Z,16.91
2019-04-21T15:33:41.207Z,17.79
2019-04-21T15:36:11.305Z,17.66
2019-04-21T15:38:40.917Z,17.88
2019-04-21T15:41:10.966Z,17.12
2019-04-21T15:43:42.585Z,18.14
2019-04-21T15:46:13.051Z,17.95
2019-04-21T15:48:42.958Z,18.40
2019-04-21T15:51:13.648Z,15.53
2019-04-21T15:53:45.833Z,16.35
2019-04-21T15:56:26.867Z,15.99
2019-04-21T15:59:10.494Z,16.64
2019-04-21T16:01:48.462Z,18.09
2019-04-21T16:04:18.874Z,16.91
2019-04-21T16:06:49.822Z,16.90
2019-04-21T16:09:22.417Z,16.33
2019-04-21T16:11:51.650Z,16.99
2019-04-21T16:14:22.638Z,17.09
2019-04-21T16:16:53.703Z,18.24
2019-04-21T16:19:23.291Z,16.73
2019-04-21T16:21:52.900Z,16.03
2019-04-21T16:24:23.311Z,15.71
2019-04-21T16:26:53.067Z,15.88
2019-04-21T16:29:23.051Z,16.71
2019-04-21T16:31:53.247Z,16.71
2019-04-21T16:34:34.475Z,16.30
2019-04-21T16:36:54.122Z,15.89
2019-04-21T16:39:23.750Z,16.24
2019-04-21T16:41:54.455Z,16.56
2019-04-21T16:44:25.309Z,18.01
2019-04-21T16:46:55.706Z,18.22
2019-04-21T16:49:25.500Z,16.57
2019-04-21T16:52:12.262Z,17.82
2019-04-21T16:54:44.120Z,16.93
2019-04-21T16:57:15.603Z,15.79
2019-04-21T16:59:46.801Z,15.42
2019-04-21T17:02:16.550Z,16.78
2019-04-21T17:04:46.489Z,17.53
2019-04-21T17:07:16.110Z,15.63
2019-04-21T17:09:46.463Z,15.77
2019-04-21T17:12:18.305Z,16.64
2019-04-21T17:15:01.149Z,15.93
2019-04-21T17:17:47.522Z,17.71
2019-04-21T17:19:53.803Z,19.36
2019-04-21T17:22:21.809Z,19.40
2019-04-21T17:24:52.564Z,17.70
2019-04-21T17:27:23.039Z,19.09
2019-04-21T17:29:52.752Z,19.72
2019-04-21T17:32:26.337Z,17.04
2019-04-21T17:34:54.137Z,16.99
2019-04-21T17:37:26.792Z,18.17
2019-04-21T17:39:56.736Z,18.35
2019-04-21T17:42:34.438Z,17.50
2019-04-21T17:44:57.624Z,17.58
2019-04-21T17:47:41.492Z,18.44
2019-04-21T17:50:19.888Z,18.29
2019-04-21T17:53:08.751Z,18.87
2019-04-21T17:55:46.082Z,17.11
2019-04-21T17:58:27.989Z,18.66
2019-04-21T18:03:52.213Z,18.94
2019-04-21T18:06:02.359Z,19.44
2019-04-21T18:08:40.140Z,20.40
2019-04-21T18:11:03.448Z,19.84
2019-04-21T18:13:26.594Z,20.55
2019-04-21T18:16:08.285Z,22.48
2019-04-21T18:18:26.522Z,23.06
2019-04-21T18:21:09.636Z,23.08
2019-04-21T18:23:50.537Z,23.83
2019-04-21T18:26:27.100Z,24.62
2019-04-21T18:28:44.450Z,25.35
2019-04-21T18:31:14.801Z,25.74
2019-04-21T18:33:53.176Z,26.75
2019-04-21T18:36:28.246Z,26.42
2019-04-21T18:39:12.278Z,27.61
2019-04-21T18:41:36.554Z,28.26
2019-04-21T18:44:46.322Z,28.62
2019-04-21T18:47:11.854Z,29.17
2019-04-21T18:49:21.430Z,29.89
2019-04-21T18:52:20.676Z,30.37
2019-04-21T18:54:58.150Z,30.23
2019-04-21T18:57:22.914Z,31.22
2019-04-21T18:59:47.680Z,32.25
2019-04-21T19:02:19.086Z,32.21
2019-04-21T19:04:48.416Z,32.25
2019-04-21T19:07:32.703Z,33.70
2019-04-21T19:13:03.636Z,34.53
2019-04-21T19:15:07.709Z,33.94
2019-04-21T19:22:42.079Z,35.26
2019-04-21T19:25:16.416Z,35.69
2019-04-21T19:27:51.661Z,35.59
2019-04-21T19:32:45.472Z,35.89
2019-04-21T19:35:05.520Z,36.81
2019-04-21T19:37:41.052Z,37.19
2019-04-21T19:40:25.210Z,36.77
2019-04-21T19:42:51.170Z,36.88
2019-04-21T19:45:25.524Z,38.04
2019-04-21T19:48:02.294Z,37.65
2019-04-21T19:50:35.261Z,38.55
2019-04-21T19:52:56.884Z,38.85
2019-04-21T19:55:16.234Z,38.96
2019-04-21T19:57:46.826Z,39.33
2019-04-21T20:00:17.530Z,39.27
2019-04-21T20:02:50.437Z,40.25
2019-04-21T20:05:25.663Z,40.37
2019-04-21T20:08:07.983Z,41.55
2019-04-21T20:10:44.598Z,40.21
2019-04-21T20:13:18.121Z,40.05
2019-04-21T20:15:44.720Z,40.67
2019-04-21T20:18:09.600Z,40.38
2019-04-21T20:20:28.899Z,41.81
2019-04-21T20:22:59.342Z,40.59
2019-04-21T20:25:30.962Z,40.49
2019-04-21T20:28:07.274Z,41.69
2019-04-21T20:30:53.202Z,42.69
2019-04-21T20:33:45.782Z,43.35
2019-04-21T20:35:55.886Z,43.07
2019-04-21T20:38:19.130Z,42.19
2019-04-21T20:40:45.905Z,42.25
2019-04-21T20:43:26.937Z,42.27
2019-04-21T20:46:00.497Z,43.11
2019-04-21T20:48:21.154Z,42.52
2019-04-21T20:51:00.630Z,43.31
2019-04-21T20:53:30.340Z,43.56
2019-04-21T20:55:58.150Z,43.70
2019-04-21T20:58:34.240Z,44.19
2019-04-21T21:01:20.774Z,44.18
2019-04-21T21:03:35.253Z,44.30
2019-04-21T21:05:58.549Z,45.18
2019-04-21T21:08:40.044Z,44.24
2019-04-21T21:11:00.905Z,44.95
2019-04-21T21:13:44.419Z,45.13
2019-04-21T21:16:24.693Z,45.61
2019-04-21T21:21:17.120Z,45.92
2019-04-21T21:23:51.176Z,46.26
2019-04-21T21:26:21.792Z,46.11
2019-04-21T21:28:43.031Z,46.40
2019-04-21T21:31:17.742Z,47.10
2019-04-21T21:33:59.253Z,46.07
2019-04-21T21:36:19.512Z,46.95
2019-04-21T21:38:54.564Z,47.32
2019-04-21T21:41:16.395Z,47.77
2019-04-21T21:43:39.483Z,47.53
2019-04-21T21:46:26.656Z,47.14
2019-04-21T21:48:53.824Z,47.55
2019-04-21T21:51:20.508Z,47.43
2019-04-21T21:53:44.389Z,48.15
2019-04-21T21:56:14.493Z,47.89
2019-04-21T21:58:46.217Z,48.08
2019-04-21T22:01:20.786Z,48.04
2019-04-21T22:03:52.550Z,48.06
2019-04-21T22:06:23.028Z,47.70
2019-04-21T22:08:50.421Z,47.88
2019-04-21T22:11:20.215Z,47.64
2019-04-21T22:13:57.920Z,46.50
2019-04-21T22:16:23.007Z,47.46
2019-04-21T22:19:17.327Z,46.60
2019-04-21T22:21:41.538Z,45.89
2019-04-21T22:24:04.827Z,44.62
2019-04-21T22:26:27.245Z,45.29
2019-04-21T22:28:58.156Z,43.63
2019-04-21T22:31:31.569Z,43.35
2019-04-21T22:34:03.823Z,43.69
2019-04-21T22:36:44.827Z,42.59
2019-04-21T22:39:19.493Z,41.87
2019-04-21T22:41:38.083Z,41.16
2019-04-21T22:44:04.888Z,41.67
2019-04-21T22:46:36.049Z,40.87
2019-04-21T22:49:09.356Z,41.62
2019-04-21T22:51:42.724Z,40.21
2019-04-21T22:54:08.414Z,40.16
2019-04-21T22:56:50.479Z,39.56
2019-04-21T22:59:15.158Z,39.44
2019-04-21T23:01:46.368Z,39.09
2019-04-21T23:04:12.406Z,38.58
2019-04-21T23:06:44.492Z,38.22
2019-04-21T23:09:14.982Z,38.86
2019-04-21T23:11:49.220Z,37.90
2019-04-21T23:14:17.532Z,38.28
2019-04-21T23:16:50.686Z,37.11
2019-04-21T23:19:32.402Z,37.45
2019-04-21T23:22:14.143Z,37.62
2019-04-21T23:24:49.989Z,37.08
2019-04-21T23:27:07.902Z,36.79
2019-04-21T23:29:52.639Z,36.75
2019-04-21T23:32:14.971Z,36.63
2019-04-21T23:34:32.474Z,36.67
2019-04-21T23:37:06.609Z,36.09
2019-04-21T23:39:32.029Z,36.87
2019-04-21T23:42:01.346Z,36.51
2019-04-21T23:44:33.892Z,36.63
2019-04-21T23:47:06.588Z,36.19
2019-04-21T23:49:42.953Z,36.28
2019-04-21T23:52:09.073Z,36.44
2019-04-21T23:54:37.479Z,36.51
2019-04-21T23:57:14.080Z,36.15
2019-04-21T23:59:44.730Z,36.82
